NCAR-RAP Real-Time Weather Data

Output produced by METARs form (16 April 2024  05:18 UTC)
found at http://weather.rap.ucar.edu/surface/
 
KVPZ 160456Z AUTO 06008KT 10SM CLR 11/03 A3004 RMK AO2 SLP172 T01060028
KVPZ 160356Z AUTO 06004KT 10SM CLR 12/01 A3005 RMK AO2 SLP173 T01220011
KVPZ 160256Z AUTO 05004KT 10SM CLR 13/00 A3004 RMK AO2 SLP172 T01280000 51009
KVPZ 160156Z AUTO 00000KT 10SM CLR 13/02 A3004 RMK AO2 SLP172 T01280017